Time;durP1;ratioP1;P1;durP2;ratioP2;P2;SDS_P1;SDS_P2;PMS_P1;PMS_P2;Temp;Humidity;BMP_temperature;BMP_pressure;BME280_temperature;BME280_humidity;BME280_pressure;Samples;Min_cycle;Max_cycle;Signal;HPM_P1;HPM_P2
2021/11/08 00:02:00;;;;;;;19.27;3.78;;;;;;;17.95;41.37;101256.72;4439754;32;20104;-70
2021/11/08 00:04:26;;;;;;;13.95;3.25;;;;;;;18.14;41.26;101255.44;4438209;32;20033;-70
2021/11/08 00:06:54;;;;;;;23.52;3.22;;;;;;;17.89;41.56;101265.13;4436833;32;20115;-70
2021/11/08 00:09:20;;;;;;;26.42;4.28;;;;;;;17.82;41.71;101265.44;4439458;32;20041;-70
2021/11/08 00:11:46;;;;;;;32.13;3.50;;;;;;;17.84;41.71;101277.94;4437010;32;20089;-70
2021/11/08 00:14:17;;;;;;;17.77;3.70;;;;;;;17.77;41.77;101283.94;4437236;32;20038;-70
2021/11/08 00:17:21;;;;;;;19.27;3.42;;;;;;;17.99;41.70;101289.47;4435476;32;20070;-70
2021/11/08 00:22:07;;;;;;;28.75;3.30;;;;;;;18.07;41.60;101281.41;3984396;32;15021568;-70
2021/11/08 00:24:37;;;;;;;20.17;3.35;;;;;;;18.07;41.60;101281.41;4437867;32;20076;-70
2021/11/08 00:27:03;;;;;;;26.37;3.47;;;;;;;17.53;42.32;101270.84;4435808;32;20013;-70
2021/11/08 00:29:31;;;;;;;22.25;3.47;;;;;;;17.64;42.09;101276.81;4431954;32;20606;-70
2021/11/08 00:31:57;;;;;;;15.30;2.92;;;;;;;18.04;41.48;101288.06;4436661;32;20368;-70
2021/11/08 00:34:23;;;;;;;18.77;3.25;;;;;;;17.89;41.51;101288.69;4436713;32;20438;-70
2021/11/08 00:36:50;;;;;;;20.65;3.45;;;;;;;17.75;41.80;101286.50;4438331;32;20056;-70
2021/11/08 00:39:18;;;;;;;19.02;3.00;;;;;;;17.60;41.90;101291.22;4438480;32;20118;-70
2021/11/08 00:41:44;;;;;;;18.77;3.42;;;;;;;17.74;41.79;101272.72;4438615;32;20037;-70
2021/11/08 00:44:10;;;;;;;15.55;3.90;;;;;;;17.84;41.70;101262.91;4437638;32;20153;-70
2021/11/08 00:46:37;;;;;;;18.10;3.15;;;;;;;17.84;41.65;101260.87;4437796;32;20096;-70
2021/11/08 00:49:04;;;;;;;18.98;4.32;;;;;;;17.77;41.85;101274.63;4440423;32;20701;-70
2021/11/08 00:51:34;;;;;;;21.05;3.85;;;;;;;17.84;41.84;101268.63;4439553;32;20459;-70
2021/11/08 00:54:01;;;;;;;19.75;4.65;;;;;;;17.73;41.77;101269.09;4436386;32;20098;-70
2021/11/08 00:56:27;;;;;;;19.20;4.43;;;;;;;17.78;41.71;101267.66;4439147;32;20093;-70
2021/11/08 00:58:53;;;;;;;15.43;3.17;;;;;;;17.79;41.70;101261.50;4437043;32;20073;-70
2021/11/08 01:01:20;;;;;;;21.08;3.45;;;;;;;17.57;42.17;101266.56;4441202;32;20486;-70
2021/11/08 01:03:47;;;;;;;23.23;3.15;;;;;;;17.31;42.32;101273.00;4436225;32;20066;-70
2021/11/08 01:06:15;;;;;;;27.33;3.50;;;;;;;17.66;41.84;101265.78;4434956;32;20061;-70
2021/11/08 01:08:42;;;;;;;23.20;3.72;;;;;;;17.97;41.44;101242.81;4439786;32;20096;-70
2021/11/08 01:11:09;;;;;;;35.65;3.67;;;;;;;17.80;41.43;101250.91;4438186;32;20077;-70
2021/11/08 01:13:35;;;;;;;21.65;3.05;;;;;;;17.76;41.60;101251.06;4437102;32;20482;-70
2021/11/08 01:16:02;;;;;;;21.60;3.72;;;;;;;17.81;41.48;101256.12;4438514;32;20041;-70
2021/11/08 01:18:28;;;;;;;17.62;2.78;;;;;;;17.73;41.43;101263.41;4440215;32;20339;-70
2021/11/08 01:20:54;;;;;;;26.27;3.58;;;;;;;17.88;41.31;101269.22;4437713;32;20054;-70
2021/11/08 01:23:25;;;;;;;20.42;2.62;;;;;;;17.86;nan;101269.69;4436983;32;20479;-70
2021/11/08 01:25:57;;;;;;;20.52;3.05;;;;;;;17.94;41.25;101266.56;4434534;32;20153;-70
2021/11/08 01:28:31;;;;;;;19.85;2.60;;;;;;;17.80;41.37;101254.53;4437508;32;20094;-70
2021/11/08 01:30:58;;;;;;;19.20;3.97;;;;;;;17.67;41.61;101253.91;4434717;32;20123;-70
2021/11/08 01:33:24;;;;;;;17.85;3.03;;;;;;;17.66;41.52;101263.72;4428591;32;20438;-70
2021/11/08 01:36:09;;;;;;;17.52;3.05;;;;;;;17.56;41.82;101272.72;4425975;32;20069;-70
2021/11/08 01:41:21;;;;;;;16.60;2.70;;;;;;;17.56;41.49;101265.00;3984152;32;15023883;-70
2021/11/08 01:43:49;;;;;;;16.75;3.70;;;;;;;17.62;41.87;101268.75;4438971;32;20037;-69
2021/11/08 01:46:17;;;;;;;21.50;3.47;;;;;;;17.53;42.06;101271.63;4438707;32;20463;-69
2021/11/08 01:48:44;;;;;;;15.75;3.10;;;;;;;17.59;42.31;101268.94;4440095;32;20070;-70
2021/11/08 01:51:10;;;;;;;18.67;3.53;;;;;;;17.43;42.22;101270.03;4435542;32;20181;-70
2021/11/08 01:53:38;;;;;;;18.37;4.10;;;;;;;17.28;42.17;101274.72;4436754;32;20087;-70
2021/11/08 01:56:04;;;;;;;18.27;3.05;;;;;;;17.41;42.13;101283.12;4438812;32;20305;-70
2021/11/08 01:58:32;;;;;;;21.37;3.00;;;;;;;17.22;42.57;101279.47;4440754;32;20415;-70
2021/11/08 02:00:59;;;;;;;20.83;3.28;;;;;;;17.27;42.48;101281.69;4434148;32;20140;-70
2021/11/08 02:03:26;;;;;;;27.10;3.15;;;;;;;17.10;42.74;101300.31;4438715;32;20009;-70
2021/11/08 02:05:53;;;;;;;14.13;3.42;;;;;;;16.90;42.96;101288.53;4438973;32;20198;-70
2021/11/08 02:08:22;;;;;;;15.65;2.67;;;;;;;16.94;42.93;101285.56;4434936;32;20033;-70
2021/11/08 02:10:48;;;;;;;16.27;2.30;;;;;;;17.01;42.80;101291.75;4436698;32;20033;-70
2021/11/08 02:13:15;;;;;;;24.23;3.75;;;;;;;16.82;43.07;101286.47;4437908;32;20048;-70
2021/11/08 02:15:42;;;;;;;16.12;3.00;;;;;;;17.01;42.72;101300.28;4435423;32;20474;-70
2021/11/08 02:18:11;;;;;;;14.43;2.70;;;;;;;16.97;42.77;101302.44;4438653;32;20026;-70
2021/11/08 02:20:41;;;;;;;17.08;2.25;;;;;;;17.15;42.62;101308.19;4437519;32;20084;-70
2021/11/08 02:23:08;;;;;;;15.35;2.20;;;;;;;17.08;42.55;101313.38;4436885;32;20473;-70
2021/11/08 02:25:37;;;;;;;14.20;3.03;;;;;;;17.23;42.05;101309.50;4436933;32;20041;-69
2021/11/08 02:28:06;;;;;;;24.73;3.50;;;;;;;17.50;41.85;101303.09;4437338;32;20502;-69
2021/11/08 02:30:35;;;;;;;14.77;2.22;;;;;;;17.47;41.98;101301.19;4437795;32;20457;-69
2021/11/08 02:33:01;;;;;;;17.30;2.25;;;;;;;17.31;42.02;101310.75;4436911;32;20316;-70
2021/11/08 02:35:28;;;;;;;10.18;2.12;;;;;;;17.23;42.11;101308.69;4437387;32;20127;-69
2021/11/08 02:37:54;;;;;;;14.23;2.45;;;;;;;17.10;42.34;101310.88;4436901;32;20082;-69
2021/11/08 02:40:24;;;;;;;21.98;2.87;;;;;;;17.07;42.24;101314.66;4436377;32;20120;-69
2021/11/08 02:42:53;;;;;;;14.20;2.45;;;;;;;17.20;42.42;101318.16;4433856;32;20026;-69
2021/11/08 02:45:22;;;;;;;22.20;2.53;;;;;;;17.13;42.62;101318.47;4437973;32;20497;-69
2021/11/08 02:47:49;;;;;;;10.00;2.22;;;;;;;17.15;42.49;101308.19;4436750;32;20321;-69
2021/11/08 02:50:16;;;;;;;14.80;2.80;;;;;;;17.03;42.71;101294.87;4436797;32;20063;-69
2021/11/08 02:52:43;;;;;;;17.92;2.40;;;;;;;16.79;43.11;101284.56;4425074;32;20041;-69
2021/11/08 02:55:09;;;;;;;22.40;2.83;;;;;;;16.95;42.91;101299.31;4427072;32;20103;-70
2021/11/08 02:57:36;;;;;;;18.70;3.08;;;;;;;16.78;43.13;101292.28;4426952;32;20121;-70
2021/11/08 03:00:05;;;;;;;16.87;2.60;;;;;;;16.86;43.07;101296.44;4425934;32;20084;-70
2021/11/08 03:02:33;;;;;;;23.00;3.65;;;;;;;17.06;42.95;101291.09;4426458;32;20096;-70
2021/11/08 03:04:59;;;;;;;17.02;3.53;;;;;;;16.76;43.20;101291.19;4428592;32;20392;-70
2021/11/08 03:07:29;;;;;;;17.65;2.90;;;;;;;16.84;42.89;101283.97;4424351;32;20021;-70
2021/11/08 03:10:00;;;;;;;24.08;2.92;;;;;;;16.73;43.19;101283.59;4428960;32;20030;-70
2021/11/08 03:12:27;;;;;;;17.37;2.97;;;;;;;16.86;42.92;101279.38;4426975;32;20115;-70
2021/11/08 03:17:46;;;;;;;;;;;;;;;16.68;43.12;101284.19;4421682;32;20030;-69
2021/11/08 03:20:16;;;;;;;20.98;3.08;;;;;;;16.96;42.50;101277.34;4425717;32;19950;-69
2021/11/08 03:22:50;;;;;;;18.02;3.40;;;;;;;16.68;43.37;101282.16;4424055;32;20081;-69
2021/11/08 03:25:26;;;;;;;19.52;3.42;;;;;;;16.41;43.70;101284.06;4426561;32;20088;-69
2021/11/08 03:27:54;;;;;;;14.32;3.47;;;;;;;16.24;44.13;101272.13;4427840;32;20033;-69
2021/11/08 03:30:23;;;;;;;24.37;2.90;;;;;;;16.23;43.96;101262.00;4425937;32;20083;-69
2021/11/08 03:32:51;;;;;;;15.90;2.75;;;;;;;16.48;43.76;101270.38;4425117;32;20422;-69
2021/11/08 03:35:20;;;;;;;16.87;2.83;;;;;;;16.41;43.78;101272.69;4425073;32;20025;-69
2021/11/08 03:37:47;;;;;;;18.90;3.15;;;;;;;16.34;44.10;101273.75;4421782;32;20038;-70
2021/11/08 03:40:18;;;;;;;14.75;2.85;;;;;;;16.28;44.07;101263.44;4426903;32;20026;-70
2021/11/08 03:42:45;;;;;;;22.13;3.42;;;;;;;16.22;44.25;101276.66;4425248;32;20060;-69
2021/11/08 03:45:11;;;;;;;16.40;2.83;;;;;;;16.10;44.56;101266.97;4426106;32;20060;-69
2021/11/08 03:47:37;;;;;;;20.02;3.12;;;;;;;16.18;44.46;101268.28;4423721;32;20148;-69
2021/11/08 03:50:04;;;;;;;16.35;2.90;;;;;;;16.09;44.55;101259.72;4425080;32;20065;-69
2021/11/08 03:52:31;;;;;;;18.80;2.95;;;;;;;16.30;44.21;101255.25;4424852;32;20152;-70
2021/11/08 03:54:56;;;;;;;17.83;3.47;;;;;;;16.15;44.23;101262.75;4426137;32;20101;-70
2021/11/08 03:57:22;;;;;;;14.30;3.22;;;;;;;16.02;44.80;101271.34;4428121;32;20104;-70
2021/11/08 03:59:48;;;;;;;19.80;3.50;;;;;;;15.98;44.68;101272.75;4426438;32;20379;-69
2021/11/08 04:02:13;;;;;;;17.35;3.70;;;;;;;16.04;44.57;101262.38;4419667;32;20072;-69
2021/11/08 04:04:39;;;;;;;14.10;3.03;;;;;;;16.19;44.01;101267.03;4424743;32;20097;-69
2021/11/08 04:07:05;;;;;;;17.92;2.95;;;;;;;16.16;44.29;101270.81;4425947;32;20090;-69
2021/11/08 04:09:32;;;;;;;21.10;3.97;;;;;;;15.78;44.45;101268.16;4427218;32;20165;-69
2021/11/08 04:11:57;;;;;;;16.40;2.70;;;;;;;16.08;44.39;101269.50;4424523;32;20390;-69
2021/11/08 04:14:25;;;;;;;13.82;3.17;;;;;;;16.19;44.13;101278.38;4425398;32;20567;-69
2021/11/08 04:16:51;;;;;;;12.55;2.97;;;;;;;16.14;44.44;101276.12;4423501;32;20523;-69
2021/11/08 04:19:18;;;;;;;19.77;3.40;;;;;;;16.20;44.26;101271.44;4425505;32;20080;-69
2021/11/08 04:21:44;;;;;;;17.37;4.15;;;;;;;16.19;44.44;101275.56;4426585;32;20120;-69
2021/11/08 04:24:10;;;;;;;16.70;2.97;;;;;;;16.11;44.49;101279.94;4426022;32;20427;-69
2021/11/08 04:26:36;;;;;;;20.98;3.65;;;;;;;15.52;45.30;101285.75;4424935;32;20136;-69
2021/11/08 04:29:04;;;;;;;20.00;3.78;;;;;;;15.88;44.95;101277.56;4427252;32;20089;-69
2021/11/08 04:31:34;;;;;;;19.45;3.12;;;;;;;16.04;44.68;101279.41;4425734;32;20073;-69
2021/11/08 04:34:07;;;;;;;23.55;3.97;;;;;;;16.15;44.60;101282.62;4426014;32;20144;-69
2021/11/08 04:37:02;;;;;;;15.23;3.17;;;;;;;16.27;44.41;101291.06;4428033;32;20045;-69
2021/11/08 04:42:16;;;;;;;24.60;4.77;;;;;;;16.45;43.72;101284.72;3990372;31;15016649;-69
2021/11/08 04:50:13;;;;;;;17.67;3.00;;;;;;;16.45;44.04;101268.47;4435417;32;20033;-69
2021/11/08 05:23:07;;;;;;;15.95;2.67;;;;;;;15.57;45.51;101271.81;4430473;32;20521;-70
2021/11/08 05:30:46;;;;;;;13.35;3.08;;;;;;;15.87;44.78;101288.09;3982701;32;15023431;-70
2021/11/08 05:33:12;;;;;;;8.13;1.98;;;;;;;15.53;45.45;101290.97;4438981;32;20076;-70
2021/11/08 05:35:38;;;;;;;17.23;3.22;;;;;;;15.55;45.63;101288.50;4438958;32;20076;-70
2021/11/08 05:38:09;;;;;;;14.75;2.70;;;;;;;15.69;45.35;101296.50;4438720;32;20037;-70
2021/11/08 05:40:36;;;;;;;14.13;3.33;;;;;;;15.84;45.17;101294.69;4437068;32;20033;-70
2021/11/08 05:43:03;;;;;;;15.38;3.03;;;;;;;15.93;44.98;101294.78;4438743;32;20099;-70
2021/11/08 05:45:33;;;;;;;14.25;3.20;;;;;;;16.06;44.64;101296.75;4438421;32;20068;-70
2021/11/08 05:48:01;;;;;;;17.92;3.37;;;;;;;16.03;44.87;101304.16;4437251;32;20025;-70
2021/11/08 05:50:30;;;;;;;16.10;3.03;;;;;;;16.24;44.46;101303.38;4437546;32;20038;-70
2021/11/08 05:52:56;;;;;;;16.85;3.30;;;;;;;16.26;44.36;101317.09;4437903;32;20022;-70
2021/11/08 05:55:35;;;;;;;9.90;2.30;;;;;;;16.30;44.20;101310.03;4436822;32;20049;-70
2021/11/08 05:58:29;;;;;;;15.35;3.00;;;;;;;16.44;44.39;101309.50;4440297;32;20095;-70
2021/11/08 06:50:33;;;;;;;18.48;3.20;;;;;;;17.25;42.16;101304.09;4436120;32;20105;-69
2021/11/08 06:53:03;;;;;;;22.40;4.00;;;;;;;17.24;42.36;101307.41;4436784;32;20076;-69
2021/11/08 06:55:29;;;;;;;17.17;3.20;;;;;;;17.30;42.09;101314.06;4435812;32;20081;-69
2021/11/08 06:58:27;;;;;;;18.85;3.40;;;;;;;17.25;42.25;101306.94;4437287;32;20410;-69
2021/11/08 07:00:40;;;;;;;29.42;4.07;;;;;;;17.30;42.31;101314.06;4434096;32;20037;-69
2021/11/08 07:03:06;;;;;;;18.83;4.80;;;;;;;17.38;41.94;101298.28;4436395;32;20064;-69
2021/11/08 07:05:32;;;;;;;22.98;4.57;;;;;;;17.40;42.02;101295.78;4434983;32;20499;-69
2021/11/08 07:07:58;;;;;;;15.85;4.10;;;;;;;17.28;41.98;101293.84;4432478;32;20299;-69
2021/11/08 07:10:24;;;;;;;19.67;4.85;;;;;;;17.48;42.01;101292.19;4436049;32;20465;-69
2021/11/08 07:12:51;;;;;;;20.90;5.55;;;;;;;17.49;42.09;101281.59;4434961;32;20106;-69
2021/11/08 07:15:19;;;;;;;23.85;5.15;;;;;;;17.57;42.14;101294.22;4437974;32;20065;-69
2021/11/08 07:17:46;;;;;;;23.25;4.70;;;;;;;17.49;42.11;101290.13;4435398;32;20431;-69
2021/11/08 07:20:12;;;;;;;21.35;5.00;;;;;;;17.67;42.01;101290.91;4437587;32;20073;-70
2021/11/08 07:22:38;;;;;;;23.38;4.70;;;;;;;17.78;41.67;101285.53;4433998;32;20104;-69
2021/11/08 07:25:05;;;;;;;18.60;4.32;;;;;;;17.66;41.93;101295.03;4438599;32;20068;-69
2021/11/08 07:27:31;;;;;;;17.45;4.18;;;;;;;17.72;41.83;101290.28;4433595;32;20377;-70
2021/11/08 07:29:57;;;;;;;23.67;4.87;;;;;;;17.77;41.67;101283.94;4427693;32;20124;-69
2021/11/08 07:32:24;;;;;;;19.25;4.37;;;;;;;17.40;42.08;101273.00;4424411;32;20196;-69
2021/11/08 07:34:51;;;;;;;19.98;4.25;;;;;;;17.76;41.74;101273.84;4422124;32;20094;-69
2021/11/08 07:37:17;;;;;;;14.40;3.78;;;;;;;17.81;41.61;101284.59;4422591;32;20063;-69
2021/11/08 07:39:43;;;;;;;20.37;4.10;;;;;;;17.56;42.02;101301.19;4414625;32;20223;-69
2021/11/08 07:42:09;;;;;;;17.95;4.30;;;;;;;17.60;42.29;101287.59;4414383;32;20383;-69
2021/11/08 07:44:34;;;;;;;19.33;4.40;;;;;;;17.76;41.94;101298.66;4416461;32;20073;-69
2021/11/08 07:47:00;;;;;;;16.58;3.83;;;;;;;17.83;41.54;101301.97;4418617;32;20029;-69
2021/11/08 07:49:26;;;;;;;15.27;3.83;;;;;;;17.99;41.48;101314.31;4422189;32;20386;-69
2021/11/08 07:51:51;;;;;;;17.42;4.57;;;;;;;18.06;41.50;101311.13;4416392;32;20085;-69
2021/11/08 07:54:17;;;;;;;19.20;4.32;;;;;;;18.04;41.63;101311.59;4421535;32;20121;-69
2021/11/08 07:56:47;;;;;;;18.87;4.93;;;;;;;18.26;41.29;101317.12;4420686;32;20121;-70
2021/11/08 07:59:14;;;;;;;26.60;6.30;;;;;;;18.25;41.57;101321.25;4411513;32;20435;-70
2021/11/08 08:01:42;;;;;;;31.70;5.93;;;;;;;18.48;41.42;101324.25;4420425;32;20076;-70
2021/11/08 08:04:08;;;;;;;27.67;6.35;;;;;;;18.38;41.08;101330.44;4409208;32;20062;-70
2021/11/08 08:06:34;;;;;;;30.50;5.95;;;;;;;18.22;41.36;101316.50;4411603;32;20106;-70
2021/11/08 08:08:59;;;;;;;17.45;5.37;;;;;;;18.07;41.76;101307.81;4413059;32;20754;-70
2021/11/08 08:11:25;;;;;;;19.35;6.12;;;;;;;18.14;41.74;101310.34;4414821;32;20499;-70
2021/11/08 08:13:51;;;;;;;20.25;4.85;;;;;;;18.32;41.45;101318.06;4418900;32;20379;-70
2021/11/08 08:16:19;;;;;;;27.33;5.15;;;;;;;18.74;41.08;101316.84;4413211;32;20089;-70
2021/11/08 08:18:47;;;;;;;23.62;4.68;;;;;;;18.95;40.95;101323.56;4413783;32;20085;-70
2021/11/08 08:21:14;;;;;;;18.10;5.05;;;;;;;19.15;40.78;101323.81;4417208;32;20119;-71
2021/11/08 08:23:41;;;;;;;27.42;6.20;;;;;;;19.10;40.52;101318.75;4410507;32;20355;-71
2021/11/08 08:26:08;;;;;;;26.42;5.82;;;;;;;19.05;40.69;101313.72;4410843;32;20483;-71
2021/11/08 08:28:34;;;;;;;23.08;4.62;;;;;;;19.12;40.77;101316.97;4414353;32;20160;-71
2021/11/08 08:31:01;;;;;;;25.15;5.43;;;;;;;19.19;40.23;101307.28;4418837;32;20183;-71
2021/11/08 08:33:28;;;;;;;22.08;5.35;;;;;;;19.27;40.15;101311.41;4414045;32;20076;-71
2021/11/08 08:35:54;;;;;;;19.23;5.43;;;;;;;19.45;40.03;101300.66;4413305;32;20192;-71
2021/11/08 08:38:22;;;;;;;29.23;5.10;;;;;;;19.49;39.93;101303.31;4415248;32;20503;-71
2021/11/08 08:40:51;;;;;;;20.67;5.35;;;;;;;19.72;39.74;101302.50;4417176;32;20127;-70
2021/11/08 08:43:18;;;;;;;17.15;4.72;;;;;;;19.96;39.36;101296.75;4419052;32;20056;-70
2021/11/08 08:45:45;;;;;;;21.92;4.62;;;;;;;20.24;38.51;101304.59;4415861;32;20077;-70
2021/11/08 08:48:12;;;;;;;18.58;3.53;;;;;;;20.31;38.52;101306.28;4413326;32;20035;-70
2021/11/08 08:50:41;;;;;;;18.30;6.00;;;;;;;20.26;38.44;101310.63;4413190;32;20456;-71
2021/11/08 08:53:07;;;;;;;22.08;4.55;;;;;;;20.31;38.40;101315.63;4415168;32;20077;-70
2021/11/08 08:55:34;;;;;;;22.27;4.10;;;;;;;20.26;38.24;101310.63;4411787;32;20432;-71
2021/11/08 08:58:00;;;;;;;17.95;4.97;;;;;;;20.39;38.04;101313.16;4412963;32;20078;-70
2021/11/08 09:00:26;;;;;;;16.85;3.75;;;;;;;20.23;38.21;101313.66;4414676;32;20101;-71
2021/11/08 09:02:54;;;;;;;21.02;5.07;;;;;;;20.02;38.63;101329.06;4415189;32;20045;-71
2021/11/08 09:05:22;;;;;;;16.52;3.50;;;;;;;20.26;38.24;101330.62;4415482;32;20584;-71
2021/11/08 09:07:50;;;;;;;18.80;3.95;;;;;;;20.33;37.73;101321.66;4414071;32;20068;-71
2021/11/08 09:10:15;;;;;;;15.02;3.83;;;;;;;20.65;37.37;101319.88;4411920;32;20153;-71
2021/11/08 09:12:41;;;;;;;15.85;3.10;;;;;;;20.53;37.38;101321.78;4411766;32;20084;-71
2021/11/08 09:15:08;;;;;;;12.20;2.90;;;;;;;20.40;37.39;101312.69;4416298;32;20073;-71
2021/11/08 09:17:34;;;;;;;22.90;4.12;;;;;;;20.51;37.21;101312.09;4415681;32;20120;-71
2021/11/08 09:19:59;;;;;;;20.50;4.18;;;;;;;20.32;37.42;101311.50;4418487;32;20417;-71
2021/11/08 09:22:26;;;;;;;19.85;3.95;;;;;;;20.24;37.31;101298.06;4415154;32;20193;-71
2021/11/08 09:24:52;;;;;;;17.12;3.80;;;;;;;20.11;37.96;101291.84;4409379;32;20033;-71
2021/11/08 09:27:18;;;;;;;23.62;3.97;;;;;;;20.20;37.72;101289.72;4412812;32;20523;-71
2021/11/08 09:29:44;;;;;;;20.80;4.03;;;;;;;20.16;37.91;101279.75;4416814;32;20451;-72
2021/11/08 09:32:10;;;;;;;17.95;3.80;;;;;;;20.06;38.33;101284.75;4417092;32;20077;-72
2021/11/08 09:34:44;;;;;;;16.85;3.90;;;;;;;20.43;37.62;101288.06;4414596;32;20094;-71
2021/11/08 09:37:13;;;;;;;19.73;4.25;;;;;;;20.74;37.37;101288.31;4416982;32;20096;-70
2021/11/08 09:39:40;;;;;;;31.70;4.80;;;;;;;21.26;36.62;101290.94;4416657;32;20467;-70
2021/11/08 09:42:10;;;;;;;17.35;3.87;;;;;;;21.81;35.50;101295.84;4415138;32;20089;-70
2021/11/08 09:44:36;;;;;;;21.08;4.05;;;;;;;22.68;34.43;101298.06;4415160;32;20132;-71
2021/11/08 09:47:04;;;;;;;19.83;4.07;;;;;;;23.00;32.95;101300.41;4414105;32;20113;-71
2021/11/08 09:49:30;;;;;;;15.63;3.42;;;;;;;23.44;32.42;101302.78;4415404;32;20100;-70
2021/11/08 09:51:58;;;;;;;19.50;3.83;;;;;;;24.12;30.99;101305.41;4412452;32;20172;-71
2021/11/08 09:54:28;;;;;;;16.75;2.83;;;;;;;24.49;30.77;101300.25;4416266;32;20056;-71
2021/11/08 09:56:57;;;;;;;13.85;3.10;;;;;;;24.64;30.48;101300.78;4416520;32;20126;-70
2021/11/08 09:59:26;;;;;;;10.18;2.95;;;;;;;25.68;29.49;101304.81;4415165;32;20077;-72
2021/11/08 10:01:53;;;;;;;11.82;2.83;;;;;;;25.87;28.20;101292.16;4416310;32;20073;-71
2021/11/08 10:04:19;;;;;;;11.63;2.80;;;;;;;26.33;27.79;101300.03;4415763;32;20421;-72
2021/11/08 10:06:47;;;;;;;14.87;3.00;;;;;;;26.52;27.66;101298.06;4415202;32;20057;-72
2021/11/08 10:09:14;;;;;;;12.98;3.25;;;;;;;26.74;27.10;101301.59;4415527;32;20099;-72
2021/11/08 10:11:44;;;;;;;10.68;2.80;;;;;;;25.53;28.43;101308.03;4417373;32;20112;-70
2021/11/08 10:14:10;;;;;;;13.60;2.85;;;;;;;25.41;28.87;101323.78;4416469;32;20057;-72
2021/11/08 10:16:38;;;;;;;11.50;3.15;;;;;;;24.45;29.92;101317.75;4415084;32;20072;-71
2021/11/08 10:19:09;;;;;;;19.60;3.00;;;;;;;24.13;30.48;101322.16;4414689;32;20130;-71
2021/11/08 10:21:41;;;;;;;14.87;2.87;;;;;;;23.54;31.55;101318.50;4415663;32;20550;-71
2021/11/08 10:24:12;;;;;;;13.05;2.90;;;;;;;22.96;32.44;101302.72;4413467;32;20108;-71
2021/11/08 10:26:38;;;;;;;14.18;2.92;;;;;;;22.98;32.70;101302.97;4416295;32;20065;-71
2021/11/08 10:29:13;;;;;;;14.98;3.03;;;;;;;22.57;33.10;101295.88;4417415;32;20033;-71
2021/11/08 10:31:46;;;;;;;16.25;3.10;;;;;;;22.82;33.00;101297.13;4414727;32;20348;-71
2021/11/08 10:34:13;;;;;;;22.02;3.35;;;;;;;22.51;33.41;101282.78;4417553;32;20069;-71
2021/11/08 10:36:40;;;;;;;13.73;3.55;;;;;;;22.57;33.46;101272.94;4415614;32;20065;-72
2021/11/08 10:39:09;;;;;;;13.73;3.00;;;;;;;22.52;33.63;101276.53;4413388;32;20627;-72
2021/11/08 10:41:39;;;;;;;16.37;2.75;;;;;;;22.74;33.31;101265.22;4415947;32;20411;-71
2021/11/08 10:46:54;;;;;;;12.60;2.70;;;;;;;22.05;33.89;101268.50;3996496;31;15067115;-72
2021/11/08 10:49:24;;;;;;;15.15;2.97;;;;;;;22.11;34.22;101266.47;4452462;32;20109;-71
2021/11/08 10:51:54;;;;;;;15.05;3.00;;;;;;;22.19;34.23;101269.69;4453367;32;20103;-71
2021/11/08 10:57:02;;;;;;;16.90;4.65;;;;;;;21.92;34.90;101267.31;3950002;32;15724558;-71
2021/11/08 10:59:32;;;;;;;17.33;3.78;;;;;;;21.92;34.90;101267.31;4421438;32;20073;-71
2021/11/08 11:02:00;;;;;;;16.25;3.25;;;;;;;21.71;34.87;101263.66;4420010;32;20136;-71
2021/11/08 11:04:33;;;;;;;18.33;3.75;;;;;;;21.70;34.99;101274.31;4422240;32;21118;-71
2021/11/08 11:06:59;;;;;;;13.90;2.87;;;;;;;21.61;35.14;101263.03;4407902;32;20443;-71
2021/11/08 11:09:28;;;;;;;13.60;3.00;;;;;;;21.53;35.23;101276.22;4424295;32;20041;-71
2021/11/08 11:14:49;;;;;;;14.80;3.22;;;;;;;23.31;32.50;101283.12;3979566;32;15021804;-71
2021/11/08 11:17:22;;;;;;;14.35;3.28;;;;;;;23.31;32.50;101283.12;4428538;32;20048;-71
2021/11/08 11:20:00;;;;;;;17.43;3.33;;;;;;;23.96;31.35;101275.31;4426599;32;20464;-69
2021/11/08 11:22:27;;;;;;;11.05;2.67;;;;;;;24.09;31.26;101278.50;4429781;32;20478;-70
2021/11/08 11:24:55;;;;;;;19.48;3.42;;;;;;;24.68;30.29;101275.44;4431117;32;20098;-70
2021/11/08 11:32:44;;;;;;;20.08;3.28;;;;;;;27.44;26.64;101265.97;3975267;32;15029649;-71
2021/11/08 11:35:14;;;;;;;12.32;2.62;;;;;;;27.44;26.64;101265.97;4423273;32;20077;-71
2021/11/08 11:37:50;;;;;;;17.35;3.20;;;;;;;27.66;26.46;101262.78;4423226;32;20104;-72
2021/11/08 11:40:17;;;;;;;11.63;2.60;;;;;;;27.47;26.52;101259.09;4428474;32;20033;-72
2021/11/08 11:42:45;;;;;;;13.07;2.80;;;;;;;27.60;26.22;101267.84;4428994;32;20081;-71
2021/11/08 11:45:11;;;;;;;12.77;3.10;;;;;;;27.33;26.13;101248.72;4423591;32;20104;-71
2021/11/08 11:47:39;;;;;;;14.32;3.05;;;;;;;27.31;26.67;101257.19;4421843;32;20534;-71
2021/11/08 11:50:05;;;;;;;16.90;2.95;;;;;;;27.58;26.36;101253.16;4426524;32;20087;-71
2021/11/08 11:52:32;;;;;;;12.73;3.05;;;;;;;27.25;26.78;101252.78;4427920;32;21291;-71
2021/11/08 11:54:58;;;;;;;20.12;3.10;;;;;;;26.97;27.06;101239.38;4425546;32;20084;-71
2021/11/08 11:57:24;;;;;;;15.48;3.22;;;;;;;27.24;26.85;101237.53;4426092;32;20085;-71
2021/11/08 11:59:51;;;;;;;12.30;2.72;;;;;;;27.91;26.15;101234.59;4427591;32;20049;-71
2021/11/08 12:02:18;;;;;;;9.00;2.20;;;;;;;27.66;26.20;101228.06;4425009;32;20487;-71
2021/11/08 12:04:43;;;;;;;12.32;3.75;;;;;;;27.89;26.11;101226.47;4426242;32;20094;-71
2021/11/08 12:07:12;;;;;;;16.52;3.58;;;;;;;27.56;26.21;101226.91;4425141;32;20097;-71
2021/11/08 12:09:39;;;;;;;20.12;2.85;;;;;;;27.93;26.01;101220.37;4427522;32;20095;-71
2021/11/08 12:12:06;;;;;;;11.12;2.95;;;;;;;28.28;25.82;101220.84;4429553;32;20555;-71
2021/11/08 12:14:34;;;;;;;16.75;3.33;;;;;;;28.62;25.43;101213.19;4427141;32;20566;-71
2021/11/08 12:17:05;;;;;;;9.50;2.53;;;;;;;28.95;25.00;101218.38;4430191;32;20093;-71
2021/11/08 12:19:37;;;;;;;16.55;3.00;;;;;;;29.41;24.51;101219.84;4429475;32;20218;-71
2021/11/08 12:22:14;;;;;;;11.23;2.70;;;;;;;29.48;24.54;101212.59;4430329;32;20057;-71
2021/11/08 12:24:42;;;;;;;11.52;3.05;;;;;;;29.62;24.32;101214.16;4428857;32;20053;-73
2021/11/08 12:27:12;;;;;;;14.80;3.08;;;;;;;28.65;25.73;101223.66;4431239;32;20446;-71
2021/11/08 12:29:49;;;;;;;15.98;4.10;;;;;;;28.61;25.96;101207.97;4427505;32;20067;-71
2021/11/08 12:32:15;;;;;;;10.98;2.80;;;;;;;29.14;25.50;101220.44;4429035;32;20042;-71
2021/11/08 12:34:46;;;;;;;7.80;2.00;;;;;;;29.07;26.27;101221.88;4429136;32;20094;-71
2021/11/08 12:37:12;;;;;;;9.52;2.42;;;;;;;28.98;26.97;101217.28;4425934;32;20045;-71
2021/11/08 12:39:40;;;;;;;9.65;2.35;;;;;;;28.39;27.68;101214.91;4430230;32;20112;-71
2021/11/08 12:42:09;;;;;;;11.93;2.08;;;;;;;28.43;27.88;101205.88;4427795;32;20069;-71
2021/11/08 12:47:16;;;;;;;10.30;1.90;;;;;;;28.06;29.04;101183.59;3978457;32;15023812;-71
2021/11/08 12:49:51;;;;;;;10.30;2.08;;;;;;;28.06;29.04;101183.59;4430338;32;20073;-70
2021/11/08 12:52:19;;;;;;;;;;;;;;;27.92;28.85;101176.19;4431452;32;20141;-71
2021/11/08 12:54:51;;;;;;;11.02;2.08;;;;;;;27.22;30.05;101180.25;4431046;32;19953;-71
2021/11/08 12:57:19;;;;;;;11.02;2.62;;;;;;;26.74;30.91;101177.41;4428481;32;20033;-70
2021/11/08 13:02:33;;;;;;;11.35;2.30;;;;;;;26.10;32.04;101158.03;3987196;32;15024481;-70
2021/11/08 13:05:02;;;;;;;8.02;2.00;;;;;;;26.02;32.35;101167.81;4445203;32;20074;-71
2021/11/08 13:07:34;;;;;;;11.90;2.35;;;;;;;25.93;32.65;101163.13;4442404;32;20041;-70
2021/11/08 13:10:03;;;;;;;7.95;2.08;;;;;;;26.00;32.57;101168.34;4444155;32;20060;-71
2021/11/08 13:12:34;;;;;;;9.20;1.77;;;;;;;25.66;33.26;101163.31;4445693;32;20065;-71
2021/11/08 13:18:04;;;;;;;14.38;2.90;;;;;;;26.00;33.16;101151.03;3979598;32;15025055;-72
2021/11/08 13:20:33;;;;;;;10.32;2.30;;;;;;;26.00;33.16;101151.03;4431006;32;20150;-71
2021/11/08 13:23:06;;;;;;;10.82;2.47;;;;;;;25.43;34.07;101142.47;4429461;32;20593;-71
2021/11/08 13:25:35;;;;;;;8.00;1.67;;;;;;;25.43;33.89;101141.72;4428598;32;20108;-71